Time;durP1;ratioP1;P1;durP2;ratioP2;P2;SDS_P1;SDS_P2;PMS_P1;PMS_P2;Temp;Humidity;BMP_temperature;BMP_pressure;BME280_temperature;BME280_humidity;BME280_pressure;Samples;Min_cycle;Max_cycle;Signal;HPM_P1;HPM_P2
2021/08/29 00:00:23;;;;;;;9.53;7.10;;;16.60;1.00;;;;;;6171938;23;20433;-86
2021/08/29 00:02:49;;;;;;;6.87;6.17;;;16.60;1.00;;;;;;6182552;23;20404;-87
2021/08/29 00:05:16;;;;;;;6.90;6.20;;;16.70;1.00;;;;;;6191399;23;20508;-86
2021/08/29 00:07:43;;;;;;;7.33;6.00;;;16.70;1.00;;;;;;6178661;23;20539;-84
2021/08/29 00:10:12;;;;;;;6.10;5.50;;;16.70;1.00;;;;;;6178113;23;20512;-84
2021/08/29 00:12:41;;;;;;;6.50;6.00;;;16.80;1.00;;;;;;6177034;23;20976;-86
2021/08/29 00:15:10;;;;;;;7.80;7.07;;;16.80;1.00;;;;;;6173076;23;20413;-85
2021/08/29 00:17:36;;;;;;;8.07;6.03;;;16.80;1.00;;;;;;6148167;23;21857;-84
2021/08/29 00:20:04;;;;;;;6.97;6.30;;;16.80;1.00;;;;;;6151476;23;20434;-86
2021/08/29 00:22:31;;;;;;;5.77;5.27;;;16.80;1.00;;;;;;6177420;23;20401;-85
2021/08/29 00:24:58;;;;;;;7.73;6.50;;;16.80;1.00;;;;;;6177597;23;20384;-83
2021/08/29 00:27:26;;;;;;;6.67;5.90;;;16.80;1.00;;;;;;6175761;23;20411;-85
2021/08/29 00:29:52;;;;;;;20.30;18.20;;;16.80;1.00;;;;;;6177953;23;20465;-86
2021/08/29 00:32:19;;;;;;;7.43;6.73;;;16.80;1.00;;;;;;6179851;23;20881;-84
2021/08/29 00:34:48;;;;;;;6.67;6.07;;;16.80;1.00;;;;;;6177825;23;20433;-86
2021/08/29 00:37:14;;;;;;;7.00;6.40;;;16.80;1.00;;;;;;6178645;23;20457;-86
2021/08/29 00:39:42;;;;;;;6.13;5.53;;;16.80;1.00;;;;;;6180119;23;20533;-86
2021/08/29 00:42:10;;;;;;;6.13;5.63;;;16.80;1.00;;;;;;6182460;23;20400;-85
2021/08/29 00:44:39;;;;;;;6.10;5.60;;;16.90;1.00;;;;;;6179863;23;20952;-86
2021/08/29 00:47:07;;;;;;;6.80;5.43;;;16.80;1.00;;;;;;6180022;23;21146;-85
2021/08/29 00:49:37;;;;;;;5.63;4.50;;;16.80;1.00;;;;;;6179420;23;20463;-85
2021/08/29 00:52:04;;;;;;;8.30;7.60;;;16.80;1.00;;;;;;6179704;23;20405;-86
2021/08/29 00:54:32;;;;;;;5.70;5.20;;;16.80;1.00;;;;;;6182234;23;20371;-84
2021/08/29 00:56:59;;;;;;;5.27;4.77;;;16.80;1.00;;;;;;6154054;23;20607;-86
2021/08/29 00:59:29;;;;;;;5.40;4.90;;;16.80;1.00;;;;;;6159086;23;20460;-85
2021/08/29 01:02:04;;;;;;;6.33;5.30;;;16.80;1.00;;;;;;6212929;23;20429;-87
2021/08/29 01:04:33;;;;;;;5.17;4.67;;;16.80;1.00;;;;;;6198642;23;20405;-85
2021/08/29 01:07:05;;;;;;;5.77;5.27;;;16.90;1.00;;;;;;6187401;23;20417;-83
2021/08/29 01:09:34;;;;;;;7.03;6.17;;;16.90;1.00;;;;;;6158936;23;20444;-85
2021/08/29 01:12:02;;;;;;;5.80;5.27;;;16.90;1.00;;;;;;6187442;23;20451;-83
2021/08/29 01:14:32;;;;;;;5.60;5.10;;;16.90;1.00;;;;;;6159104;23;20392;-85
2021/08/29 01:17:02;;;;;;;6.50;5.90;;;16.90;1.00;;;;;;6188234;23;20488;-82
2021/08/29 01:19:38;;;;;;;6.20;5.70;;;16.90;1.00;;;;;;6204878;23;20385;-86
2021/08/29 01:22:08;;;;;;;6.80;6.20;;;16.90;1.00;;;;;;6212133;23;20405;-88
2021/08/29 01:24:35;;;;;;;6.70;6.13;;;16.90;1.00;;;;;;6211998;23;20377;-86
2021/08/29 01:27:11;;;;;;;7.20;6.40;;;16.90;1.00;;;;;;6203595;23;21020;-86
2021/08/29 01:29:40;;;;;;;5.93;5.43;;;16.90;1.00;;;;;;6203272;23;20431;-84
2021/08/29 01:32:08;;;;;;;6.70;6.20;;;16.80;1.00;;;;;;6203810;23;20380;-85
2021/08/29 01:34:35;;;;;;;8.30;6.03;;;16.80;1.00;;;;;;6204896;23;21059;-86
2021/08/29 01:37:03;;;;;;;6.90;6.20;;;16.90;1.00;;;;;;6180959;23;20414;-86
2021/08/29 01:39:34;;;;;;;7.73;6.97;;;16.90;1.00;;;;;;6206908;23;20404;-86
2021/08/29 01:42:01;;;;;;;6.87;6.20;;;16.90;1.00;;;;;;6182253;23;20442;-86
2021/08/29 01:44:28;;;;;;;6.43;5.83;;;16.90;1.00;;;;;;6211797;23;20448;-87
2021/08/29 01:46:58;;;;;;;7.90;6.77;;;16.90;1.00;;;;;;6206763;23;21105;-85
2021/08/29 01:49:26;;;;;;;8.77;6.10;;;16.90;1.00;;;;;;6172053;23;21249;-88
2021/08/29 01:51:53;;;;;;;5.90;5.37;;;16.90;1.00;;;;;;6201335;23;20376;-83
2021/08/29 01:54:20;;;;;;;6.80;5.53;;;16.90;1.00;;;;;;6201989;23;20419;-85
2021/08/29 01:57:05;;;;;;;6.27;5.67;;;16.90;1.00;;;;;;6205341;23;20463;-84
2021/08/29 01:59:32;;;;;;;6.13;5.63;;;16.90;1.00;;;;;;6203767;23;20397;-86
2021/08/29 02:02:01;;;;;;;7.20;6.50;;;16.80;1.00;;;;;;6203832;23;20384;-85
2021/08/29 02:04:28;;;;;;;6.63;5.87;;;16.80;1.00;;;;;;6179717;23;20354;-87
2021/08/29 02:07:06;;;;;;;6.23;5.63;;;16.80;1.00;;;;;;6210158;23;20397;-87
2021/08/29 02:09:35;;;;;;;5.70;5.20;;;16.70;1.00;;;;;;6206989;23;20424;-88
2021/08/29 02:12:02;;;;;;;6.80;5.70;;;16.70;1.00;;;;;;6177848;23;20463;-86
2021/08/29 02:14:35;;;;;;;5.93;5.40;;;16.70;1.00;;;;;;6193498;23;20400;-85
2021/08/29 02:17:05;;;;;;;5.10;4.70;;;16.70;1.00;;;;;;6182794;23;20812;-85
2021/08/29 02:19:35;;;;;;;5.97;4.93;;;16.70;1.00;;;;;;6184870;23;20445;-86
2021/08/29 02:22:03;;;;;;;5.87;5.27;;;16.80;1.00;;;;;;6185117;23;20428;-85
2021/08/29 02:24:30;;;;;;;4.23;3.83;;;16.70;1.00;;;;;;6153657;23;20435;-84
2021/08/29 02:26:58;;;;;;;5.17;4.70;;;16.70;1.00;;;;;;6180098;23;20436;-86
2021/08/29 02:29:25;;;;;;;5.37;4.63;;;16.70;1.00;;;;;;6178546;23;20511;-85
2021/08/29 02:31:52;;;;;;;6.13;5.40;;;16.70;1.00;;;;;;6178215;23;21232;-85
2021/08/29 02:34:21;;;;;;;5.50;4.33;;;16.70;1.00;;;;;;6180450;23;20484;-87
2021/08/29 02:36:51;;;;;;;5.90;5.10;;;16.70;1.00;;;;;;6178796;23;20583;-86
2021/08/29 02:39:19;;;;;;;5.37;4.83;;;16.80;1.00;;;;;;6179454;23;20411;-84
2021/08/29 02:41:49;;;;;;;5.07;4.60;;;16.70;1.00;;;;;;6183033;23;20378;-84
2021/08/29 02:44:18;;;;;;;5.13;4.63;;;16.70;1.00;;;;;;6188451;23;20413;-86
2021/08/29 02:46:45;;;;;;;4.30;3.90;;;16.70;1.00;;;;;;6183443;23;20408;-85
2021/08/29 02:49:13;;;;;;;4.67;4.27;;;16.70;1.00;;;;;;6159566;23;20448;-86
2021/08/29 02:51:41;;;;;;;4.70;4.30;;;16.80;1.00;;;;;;6180955;23;20423;-86
2021/08/29 02:54:08;;;;;;;4.13;3.70;;;16.70;1.00;;;;;;6182189;23;20668;-85
2021/08/29 02:56:37;;;;;;;4.30;4.00;;;16.80;1.00;;;;;;6180406;23;21443;-86
2021/08/29 02:59:04;;;;;;;5.03;4.60;;;16.70;1.00;;;;;;6154058;23;20416;-85
2021/08/29 03:01:31;;;;;;;4.50;4.10;;;16.80;1.00;;;;;;6183295;23;20435;-86
2021/08/29 03:03:58;;;;;;;4.77;4.30;;;16.70;1.00;;;;;;6182553;23;20424;-85
2021/08/29 03:06:26;;;;;;;5.70;4.60;;;16.70;1.00;;;;;;6188188;23;20473;-86
2021/08/29 03:08:55;;;;;;;4.70;3.70;;;16.70;1.00;;;;;;6208548;23;20401;-87
2021/08/29 03:11:25;;;;;;;4.43;4.03;;;16.70;1.00;;;;;;6191853;23;20400;-86
2021/08/29 03:13:52;;;;;;;5.00;3.67;;;16.70;1.00;;;;;;6181950;23;20897;-86
2021/08/29 03:16:20;;;;;;;3.53;3.10;;;16.70;1.00;;;;;;6180615;23;20986;-86
2021/08/29 03:18:47;;;;;;;3.83;3.43;;;16.70;1.00;;;;;;6180077;23;20409;-86
2021/08/29 03:21:17;;;;;;;4.33;3.60;;;16.70;1.00;;;;;;6179708;23;20429;-86
2021/08/29 03:23:44;;;;;;;4.20;3.80;;;16.60;1.00;;;;;;6154972;23;20512;-85
2021/08/29 03:26:15;;;;;;;3.63;2.97;;;16.60;1.00;;;;;;6180378;23;20454;-84
2021/08/29 03:28:42;;;;;;;4.80;3.60;;;16.60;1.00;;;;;;6178857;23;20536;-85
2021/08/29 03:31:09;;;;;;;4.20;3.80;;;16.60;1.00;;;;;;6154014;23;20417;-83
2021/08/29 03:33:37;;;;;;;3.90;3.50;;;16.60;1.00;;;;;;6180877;23;20415;-85
2021/08/29 03:36:06;;;;;;;4.17;3.40;;;16.60;1.00;;;;;;6152878;23;21159;-85
2021/08/29 03:38:33;;;;;;;4.30;3.30;;;16.50;1.00;;;;;;6183818;23;20504;-86
2021/08/29 03:41:01;;;;;;;3.57;3.07;;;16.50;1.00;;;;;;6188878;23;20394;-87
2021/08/29 03:43:29;;;;;;;3.30;3.00;;;16.50;1.00;;;;;;6171145;23;20377;-88
2021/08/29 03:45:57;;;;;;;3.30;2.73;;;16.50;1.00;;;;;;6183052;23;20368;-87
2021/08/29 03:48:24;;;;;;;3.30;2.80;;;16.50;1.00;;;;;;6209668;23;20384;-87
2021/08/29 03:50:52;;;;;;;3.00;2.70;;;16.50;1.00;;;;;;6182997;23;20404;-87
2021/08/29 03:53:19;;;;;;;3.37;2.80;;;16.50;1.00;;;;;;6209357;23;20372;-86
2021/08/29 03:55:46;;;;;;;2.93;2.60;;;16.50;1.00;;;;;;6203257;23;20364;-86
2021/08/29 03:58:13;;;;;;;3.47;2.63;;;16.50;1.00;;;;;;6158924;23;21268;-85
2021/08/29 04:00:42;;;;;;;2.90;2.60;;;16.50;1.00;;;;;;6185424;23;20396;-87
2021/08/29 04:03:09;;;;;;;3.17;2.57;;;16.50;1.00;;;;;;6156758;23;20423;-84
2021/08/29 04:05:37;;;;;;;2.97;2.73;;;16.40;1.00;;;;;;6184048;23;20455;-84
2021/08/29 04:08:06;;;;;;;2.80;2.40;;;16.50;1.00;;;;;;6185793;23;21174;-86
2021/08/29 04:10:33;;;;;;;3.00;2.67;;;16.50;1.00;;;;;;6204216;23;20431;-87
2021/08/29 04:13:01;;;;;;;2.90;2.60;;;16.40;1.00;;;;;;6200905;23;20397;-86
2021/08/29 04:15:28;;;;;;;2.30;2.10;;;16.40;1.00;;;;;;6188828;23;20871;-84
2021/08/29 04:17:56;;;;;;;3.50;2.37;;;16.30;1.00;;;;;;6155874;23;20509;-84
2021/08/29 04:20:23;;;;;;;3.07;2.10;;;16.20;1.00;;;;;;6183933;23;20402;-82
2021/08/29 04:22:50;;;;;;;2.40;2.20;;;16.10;1.00;;;;;;6182047;23;20414;-82
2021/08/29 04:25:18;;;;;;;2.70;2.50;;;16.10;1.00;;;;;;6182784;23;20422;-83
2021/08/29 04:27:45;;;;;;;2.93;2.33;;;16.00;1.00;;;;;;6182467;23;20417;-83
2021/08/29 04:30:13;;;;;;;2.50;2.30;;;16.00;1.00;;;;;;6181292;23;21164;-82
2021/08/29 04:32:44;;;;;;;2.90;1.93;;;16.00;1.00;;;;;;6180939;23;20388;-84
2021/08/29 04:35:13;;;;;;;3.47;2.63;;;15.90;1.00;;;;;;6182872;23;20454;-83
2021/08/29 04:37:40;;;;;;;2.53;1.70;;;15.90;1.00;;;;;;6181588;23;20520;-84
2021/08/29 04:40:09;;;;;;;3.40;2.33;;;15.90;1.00;;;;;;6181816;23;20405;-83
2021/08/29 04:42:35;;;;;;;2.50;2.00;;;15.90;1.00;;;;;;6180156;23;20399;-83
2021/08/29 04:45:02;;;;;;;2.80;2.23;;;15.80;1.00;;;;;;6156031;23;20941;-84
2021/08/29 04:47:29;;;;;;;2.23;1.60;;;15.90;1.00;;;;;;6181333;23;20503;-83
2021/08/29 04:49:56;;;;;;;2.27;1.97;;;15.90;1.00;;;;;;6181272;23;20450;-83
2021/08/29 04:52:24;;;;;;;2.70;2.33;;;15.80;1.00;;;;;;6179872;23;21642;-83
2021/08/29 04:54:50;;;;;;;2.67;2.27;;;15.80;1.00;;;;;;6181505;23;20370;-83
2021/08/29 04:57:17;;;;;;;3.20;2.50;;;15.80;1.00;;;;;;6154660;23;20450;-83
2021/08/29 04:59:44;;;;;;;2.43;1.80;;;15.70;1.00;;;;;;6182073;23;20417;-82
2021/08/29 05:02:11;;;;;;;3.00;2.23;;;15.70;1.00;;;;;;6183262;23;20395;-83
2021/08/29 05:04:37;;;;;;;3.07;1.90;;;15.70;1.00;;;;;;6182575;23;20421;-82
2021/08/29 05:07:04;;;;;;;3.00;2.40;;;15.80;1.00;;;;;;6183942;23;20440;-80
2021/08/29 05:09:33;;;;;;;3.30;2.87;;;15.80;1.00;;;;;;6183216;23;20489;-82
2021/08/29 05:12:00;;;;;;;2.57;2.20;;;15.70;1.00;;;;;;6184085;23;20399;-81
2021/08/29 05:14:26;;;;;;;3.90;2.60;;;15.70;1.00;;;;;;6206069;23;20387;-82
2021/08/29 05:16:53;;;;;;;2.60;2.30;;;15.70;1.00;;;;;;6208357;23;20401;-83
2021/08/29 05:19:20;;;;;;;2.37;2.17;;;15.70;1.00;;;;;;6196486;23;20537;-83
2021/08/29 05:21:46;;;;;;;2.63;2.03;;;15.70;1.00;;;;;;6158235;23;20404;-83
2021/08/29 05:24:13;;;;;;;2.93;2.27;;;15.70;1.00;;;;;;6186160;23;20422;-81
2021/08/29 05:26:41;;;;;;;2.90;2.00;;;15.70;1.00;;;;;;6188274;23;20407;-81
2021/08/29 05:29:08;;;;;;;2.10;1.60;;;15.70;1.00;;;;;;6186045;23;20419;-81
2021/08/29 05:31:34;;;;;;;3.17;2.10;;;15.70;1.00;;;;;;6186450;23;20408;-81
2021/08/29 05:34:01;;;;;;;2.93;2.10;;;15.60;1.00;;;;;;6187688;23;20502;-81
2021/08/29 05:36:28;;;;;;;2.87;2.40;;;15.60;1.00;;;;;;6187560;23;20942;-81
2021/08/29 05:38:54;;;;;;;2.50;2.10;;;15.60;1.00;;;;;;6185369;23;20440;-81
2021/08/29 05:41:21;;;;;;;2.20;1.60;;;15.60;1.00;;;;;;6183795;23;20406;-81
2021/08/29 05:43:49;;;;;;;2.87;2.00;;;15.60;1.00;;;;;;6183698;23;20419;-80
2021/08/29 05:46:16;;;;;;;2.90;2.20;;;15.60;1.00;;;;;;6185779;23;20465;-81
2021/08/29 05:48:44;;;;;;;2.77;2.17;;;15.60;1.00;;;;;;6184460;23;20412;-80
2021/08/29 05:51:10;;;;;;;2.50;2.00;;;15.60;1.00;;;;;;6159093;23;20482;-80
2021/08/29 05:53:37;;;;;;;2.60;1.80;;;15.60;1.00;;;;;;6187080;23;20483;-81
2021/08/29 05:56:04;;;;;;;3.10;2.37;;;15.70;1.00;;;;;;6195457;23;20859;-80
2021/08/29 05:58:31;;;;;;;2.60;2.40;;;15.70;1.00;;;;;;6193548;23;20452;-82
2021/08/29 06:01:00;;;;;;;3.30;2.63;;;15.70;1.00;;;;;;6194423;23;20387;-82
2021/08/29 06:03:27;;;;;;;3.37;2.80;;;15.70;1.00;;;;;;6169455;23;20427;-81
2021/08/29 06:05:54;;;;;;;3.00;2.60;;;15.70;1.00;;;;;;6212096;23;20403;-81
2021/08/29 06:08:20;;;;;;;6.13;4.70;;;15.80;1.00;;;;;;6214663;23;20367;-81
2021/08/29 06:10:47;;;;;;;3.27;2.27;;;15.70;1.00;;;;;;6216571;23;20406;-81
2021/08/29 06:13:14;;;;;;;2.90;2.43;;;15.80;1.00;;;;;;6216799;23;20563;-81
2021/08/29 06:15:41;;;;;;;3.50;2.30;;;15.70;1.00;;;;;;6189149;23;20397;-81
2021/08/29 06:18:09;;;;;;;6.67;3.50;;;15.70;1.00;;;;;;6214917;23;20868;-82
2021/08/29 06:20:36;;;;;;;4.53;2.60;;;15.70;1.00;;;;;;6215200;23;20411;-81
2021/08/29 06:23:02;;;;;;;3.13;2.40;;;15.70;1.00;;;;;;6215378;23;20388;-82
2021/08/29 06:25:29;;;;;;;8.27;7.13;;;15.80;1.00;;;;;;6215730;23;20384;-82
2021/08/29 06:27:56;;;;;;;5.60;5.00;;;15.80;1.00;;;;;;6188938;23;20385;-83
2021/08/29 06:30:22;;;;;;;4.17;3.00;;;15.80;1.00;;;;;;6214830;23;20390;-83
2021/08/29 06:32:49;;;;;;;5.37;4.57;;;15.80;1.00;;;;;;6213287;23;20408;-81
2021/08/29 06:35:17;;;;;;;3.90;3.10;;;15.70;1.00;;;;;;6212003;23;20446;-80
2021/08/29 06:37:44;;;;;;;4.10;3.57;;;15.70;1.00;;;;;;6211053;23;20384;-81
2021/08/29 06:40:12;;;;;;;4.60;3.87;;;15.70;1.00;;;;;;6211433;23;20372;-81
2021/08/29 06:42:41;;;;;;;18.77;17.10;;;15.70;1.00;;;;;;6208356;23;20391;-83
2021/08/29 06:45:08;;;;;;;4.23;3.83;;;15.70;1.00;;;;;;6204671;23;20383;-81
2021/08/29 06:47:35;;;;;;;5.47;4.43;;;15.70;1.00;;;;;;6185041;23;20416;-81
2021/08/29 06:50:02;;;;;;;5.27;4.37;;;15.80;1.00;;;;;;6182456;23;20965;-80
2021/08/29 06:52:30;;;;;;;4.90;4.40;;;15.80;1.00;;;;;;6179552;23;20417;-79
2021/08/29 06:54:57;;;;;;;6.47;4.63;;;15.80;1.00;;;;;;6182306;23;20503;-80
2021/08/29 06:57:25;;;;;;;4.70;4.03;;;15.80;1.00;;;;;;6180749;23;20916;-81
2021/08/29 06:59:52;;;;;;;6.20;4.47;;;15.80;1.00;;;;;;6180934;23;20455;-81
2021/08/29 07:02:21;;;;;;;5.03;4.30;;;15.80;1.00;;;;;;6154412;23;20439;-80
2021/08/29 07:04:48;;;;;;;6.07;5.43;;;15.80;1.00;;;;;;6180397;23;20476;-80
2021/08/29 07:07:15;;;;;;;5.77;4.37;;;15.80;1.00;;;;;;6181069;23;20418;-81
2021/08/29 07:09:43;;;;;;;4.50;3.57;;;15.90;1.00;;;;;;6178565;23;20408;-81
2021/08/29 07:12:11;;;;;;;5.10;4.00;;;15.90;1.00;;;;;;6176652;23;20397;-82
2021/08/29 07:14:38;;;;;;;5.00;4.00;;;15.80;1.00;;;;;;6177005;23;20415;-80
2021/08/29 07:17:05;;;;;;;4.60;4.00;;;15.90;1.00;;;;;;6176979;23;20403;-81
2021/08/29 07:19:33;;;;;;;4.90;4.27;;;15.90;1.00;;;;;;6177660;23;20470;-81
2021/08/29 07:21:59;;;;;;;5.00;4.50;;;15.90;1.00;;;;;;6175918;23;20376;-81
2021/08/29 07:24:26;;;;;;;5.23;4.70;;;15.90;1.00;;;;;;6180040;23;20404;-81
2021/08/29 07:26:54;;;;;;;6.53;5.23;;;16.00;1.00;;;;;;6181858;23;21230;-80
2021/08/29 07:29:21;;;;;;;9.60;4.30;;;16.00;1.00;;;;;;6181310;23;20487;-80
2021/08/29 07:31:48;;;;;;;4.97;3.70;;;16.00;1.00;;;;;;6182765;23;21175;-80
2021/08/29 07:34:16;;;;;;;5.03;3.90;;;16.00;1.00;;;;;;6181839;23;20426;-80
2021/08/29 07:36:43;;;;;;;4.67;3.90;;;15.90;1.00;;;;;;6179114;23;20419;-80
2021/08/29 07:39:09;;;;;;;5.17;4.00;;;16.00;1.00;;;;;;6180510;23;20478;-81
2021/08/29 07:41:36;;;;;;;4.23;3.83;;;16.00;1.00;;;;;;6183044;23;20425;-80
2021/08/29 07:44:05;;;;;;;4.67;4.00;;;16.00;1.00;;;;;;6182038;23;20412;-81
2021/08/29 07:46:33;;;;;;;4.40;4.00;;;16.00;1.00;;;;;;6184186;23;21006;-81
2021/08/29 07:49:00;;;;;;;6.33;4.63;;;16.00;1.00;;;;;;6182921;23;20408;-81
2021/08/29 07:51:27;;;;;;;5.90;4.87;;;16.00;1.00;;;;;;6186455;23;20509;-80
2021/08/29 07:53:53;;;;;;;6.33;5.33;;;16.00;1.00;;;;;;6183249;23;20471;-82
2021/08/29 07:56:20;;;;;;;6.60;4.87;;;16.00;1.00;;;;;;6181891;23;20405;-81
2021/08/29 07:58:47;;;;;;;6.30;5.10;;;16.00;1.00;;;;;;6181824;23;20961;-81
2021/08/29 08:01:15;;;;;;;7.03;6.17;;;16.00;1.00;;;;;;6182754;23;20954;-81
2021/08/29 08:03:43;;;;;;;6.90;6.07;;;16.00;1.00;;;;;;6183413;23;20444;-81
2021/08/29 08:06:13;;;;;;;7.83;6.30;;;16.00;1.00;;;;;;6157117;23;20423;-82
2021/08/29 08:08:40;;;;;;;7.33;6.63;;;16.10;1.00;;;;;;6184125;23;20912;-82
2021/08/29 08:11:10;;;;;;;7.27;6.07;;;16.10;1.00;;;;;;6190022;23;20385;-82
2021/08/29 08:13:37;;;;;;;6.60;5.73;;;16.10;1.00;;;;;;6197567;23;20429;-83
2021/08/29 08:16:05;;;;;;;6.77;5.90;;;16.10;1.00;;;;;;6201463;23;20370;-82
2021/08/29 08:18:34;;;;;;;6.70;6.00;;;16.20;1.00;;;;;;6177931;23;20412;-82
2021/08/29 08:21:02;;;;;;;7.10;6.30;;;16.30;1.00;;;;;;6178059;23;20414;-82
2021/08/29 08:23:29;;;;;;;6.00;5.40;;;16.40;1.00;;;;;;6179275;23;20408;-81
2021/08/29 08:25:56;;;;;;;6.23;5.63;;;16.50;1.00;;;;;;6205016;23;20388;-82
2021/08/29 08:28:23;;;;;;;6.17;5.57;;;16.50;1.00;;;;;;6176075;23;20507;-80
2021/08/29 08:30:50;;;;;;;5.50;5.00;;;16.60;1.00;;;;;;6175899;23;20902;-81
2021/08/29 08:33:18;;;;;;;6.10;5.10;;;16.60;1.00;;;;;;6202177;23;20444;-82
2021/08/29 08:35:47;;;;;;;4.87;4.37;;;16.70;1.00;;;;;;6175289;23;20405;-81
2021/08/29 08:38:17;;;;;;;6.67;4.90;;;16.80;1.00;;;;;;6196541;23;20402;-81
2021/08/29 08:40:44;;;;;;;5.20;4.27;;;16.90;1.00;;;;;;6193334;23;20483;-82
2021/08/29 08:43:12;;;;;;;4.63;4.20;;;16.90;1.00;;;;;;6180924;23;20504;-85
2021/08/29 08:45:39;;;;;;;4.30;3.90;;;17.00;1.00;;;;;;6204632;23;20373;-79
2021/08/29 08:48:08;;;;;;;5.10;4.30;;;17.10;1.00;;;;;;6185734;23;20450;-78
2021/08/29 08:50:36;;;;;;;6.17;3.87;;;17.10;1.00;;;;;;6199079;23;20372;-80
2021/08/29 08:53:05;;;;;;;5.00;4.37;;;17.10;1.00;;;;;;6193647;23;21132;-79
2021/08/29 08:55:36;;;;;;;5.40;4.70;;;17.10;1.00;;;;;;6189110;23;20474;-79
2021/08/29 08:58:06;;;;;;;5.30;4.57;;;17.10;1.00;;;;;;6192218;23;20416;-79
2021/08/29 09:00:33;;;;;;;5.90;4.30;;;17.10;1.00;;;;;;6192629;23;20408;-81
2021/08/29 09:03:02;;;;;;;4.07;3.67;;;17.30;1.00;;;;;;6174034;23;20416;-80
2021/08/29 09:05:31;;;;;;;4.70;4.10;;;17.40;1.00;;;;;;6204881;23;20393;-80
2021/08/29 09:07:58;;;;;;;4.00;3.33;;;17.60;1.00;;;;;;6206639;23;20565;-80
2021/08/29 09:10:27;;;;;;;3.40;2.97;;;17.80;1.00;;;;;;6205796;23;20400;-80
2021/08/29 09:12:58;;;;;;;4.77;3.23;;;18.00;1.00;;;;;;6208855;23;20390;-80
2021/08/29 09:15:26;;;;;;;2.67;2.20;;;18.10;1.00;;;;;;6212538;23;20484;-79
2021/08/29 09:17:53;;;;;;;2.87;2.37;;;18.20;1.00;;;;;;6212644;23;20453;-80
2021/08/29 09:20:23;;;;;;;2.87;2.57;;;18.30;1.00;;;;;;6184450;23;20390;-79
2021/08/29 09:22:53;;;;;;;3.87;3.03;;;18.30;1.00;;;;;;6184204;23;20413;-79
2021/08/29 09:25:23;;;;;;;4.30;2.80;;;18.30;1.00;;;;;;6182579;23;20413;-79
2021/08/29 09:27:54;;;;;;;3.20;2.27;;;18.40;1.00;;;;;;6210123;23;20425;-82
2021/08/29 09:30:25;;;;;;;3.00;2.60;;;18.50;1.00;;;;;;6212724;23;20365;-81
2021/08/29 09:32:55;;;;;;;3.27;2.27;;;18.50;1.00;;;;;;6184872;23;20530;-81
2021/08/29 09:35:25;;;;;;;2.77;2.47;;;18.60;1.00;;;;;;6185981;23;20363;-80
2021/08/29 09:37:54;;;;;;;3.47;2.50;;;18.70;1.00;;;;;;6212252;23;20398;-84
2021/08/29 09:40:23;;;;;;;3.17;2.23;;;18.80;1.00;;;;;;6213392;23;20431;-81
2021/08/29 09:42:55;;;;;;;3.10;2.40;;;18.90;1.00;;;;;;6187158;23;20420;-80
2021/08/29 09:45:25;;;;;;;2.60;2.40;;;19.10;1.00;;;;;;6185201;23;20421;-81
2021/08/29 09:47:56;;;;;;;5.27;4.60;;;19.20;1.00;;;;;;6213381;23;21010;-81
2021/08/29 09:50:27;;;;;;;3.03;2.13;;;19.20;1.00;;;;;;6188030;23;20458;-82
2021/08/29 09:53:02;;;;;;;2.37;1.97;;;19.40;1.00;;;;;;6184230;23;20536;-80
2021/08/29 09:55:33;;;;;;;2.40;2.07;;;19.50;1.00;;;;;;6178219;23;20431;-82
2021/08/29 09:58:48;;;;;;;3.40;2.40;;;19.60;1.00;;;;;;6155433;23;20481;-81
2021/08/29 10:12:37;;;;;;;2.47;1.93;;;22.10;1.00;;;;;;6128734;23;20410;-81
2021/08/29 10:15:17;;;;;;;2.93;2.03;;;21.70;1.00;;;;;;6139220;23;20376;-81
2021/08/29 10:24:00;;;;;;;4.30;2.10;;;21.60;1.00;;;;;;6128907;23;20411;-81
2021/08/29 10:26:42;;;;;;;1.90;1.50;;;22.10;1.00;;;;;;6122653;23;20914;-81
2021/08/29 10:29:21;;;;;;;2.50;2.30;;;22.10;1.00;;;;;;6124356;23;20419;-80
2021/08/29 10:31:54;;;;;;;3.20;1.60;;;21.80;1.00;;;;;;6124524;23;20392;-82
2021/08/29 10:34:23;;;;;;;1.87;1.60;;;21.50;1.00;;;;;;6121567;23;20501;-81
2021/08/29 10:37:05;;;;;;;3.53;2.53;;;21.80;1.00;;;;;;6125489;23;20434;-81
2021/08/29 10:39:45;;;;;;;3.63;1.70;;;23.10;1.00;;;;;;6131417;23;20411;-82
2021/08/29 10:42:43;;;;;;;1.23;0.90;;;24.80;1.00;;;;;;6145671;23;20427;-81
2021/08/29 10:45:33;;;;;;;3.10;1.20;;;25.80;1.00;;;;;;6124447;23;20393;-81
2021/08/29 10:48:00;;;;;;;3.23;1.80;;;27.00;1.00;;;;;;6121042;23;20402;-80
2021/08/29 10:50:27;;;;;;;2.47;1.60;;;28.70;1.00;;;;;;6118500;23;21185;-81
2021/08/29 10:52:55;;;;;;;1.73;1.43;;;30.50;1.00;;;;;;6121224;23;20780;-82
2021/08/29 10:55:31;;;;;;;3.93;2.13;;;31.60;1.00;;;;;;6120900;23;21517;-83
2021/08/29 10:58:12;;;;;;;1.73;1.43;;;31.90;1.00;;;;;;6122826;23;20395;-82
2021/08/29 11:00:42;;;;;;;1.70;1.40;;;31.90;1.00;;;;;;6126239;23;20375;-81
2021/08/29 11:03:27;;;;;;;1.97;1.33;;;32.40;1.00;;;;;;6142912;23;20404;-84
2021/08/29 11:05:55;;;;;;;1.83;1.30;;;33.30;1.00;;;;;;6146195;23;20407;-83
2021/08/29 11:08:26;;;;;;;1.93;1.33;;;33.40;1.00;;;;;;6145977;23;20471;-84
2021/08/29 11:10:53;;;;;;;2.43;1.93;;;31.80;1.00;;;;;;6131696;23;20385;-86
2021/08/29 11:13:39;;;;;;;1.63;1.20;;;30.20;1.00;;;;;;6127890;23;20394;-83
2021/08/29 11:16:23;;;;;;;2.83;2.37;;;30.30;1.00;;;;;;6127987;23;20381;-84
2021/08/29 11:19:13;;;;;;;1.70;1.27;;;31.30;1.00;;;;;;6130004;23;20479;-83
2021/08/29 11:25:15;;;;;;;1.50;1.20;;;32.80;1.00;;;;;;6131918;23;20411;-83
2021/08/29 11:27:59;;;;;;;1.50;1.00;;;33.70;1.00;;;;;;6135261;23;20398;-80
2021/08/29 11:30:40;;;;;;;2.00;1.40;;;33.70;1.00;;;;;;6144629;23;20382;-80
2021/08/29 11:33:09;;;;;;;2.33;1.70;;;34.30;1.00;;;;;;6138225;23;20406;-81
2021/08/29 11:35:39;;;;;;;1.87;1.10;;;33.90;1.00;;;;;;6130188;23;20360;-81
2021/08/29 11:38:09;;;;;;;2.40;1.33;;;32.30;1.00;;;;;;6129810;23;20433;-80
2021/08/29 11:40:59;;;;;;;1.40;1.10;;;30.90;1.00;;;;;;6127298;23;20396;-80
2021/08/29 11:43:35;;;;;;;1.97;1.43;;;30.30;1.00;;;;;;6126211;23;20418;-81
2021/08/29 11:46:10;;;;;;;2.50;1.43;;;29.50;1.00;;;;;;6126740;23;20544;-83
2021/08/29 11:48:49;;;;;;;8.57;7.87;;;28.70;1.00;;;;;;6126649;23;20397;-83
2021/08/29 11:51:23;;;;;;;1.70;1.17;;;27.90;1.00;;;;;;6126990;23;20816;-83
2021/08/29 11:53:51;;;;;;;2.40;1.87;;;27.10;1.00;;;;;;6124825;23;20739;-82
2021/08/29 11:56:18;;;;;;;1.97;1.30;;;26.30;1.00;;;;;;6126237;23;20551;-82
2021/08/29 11:58:46;;;;;;;2.00;1.00;;;25.60;1.00;;;;;;6125201;23;20384;-82
2021/08/29 12:01:16;;;;;;;1.63;0.90;;;25.10;1.00;;;;;;6130417;23;20857;-83
2021/08/29 12:03:44;;;;;;;1.60;1.27;;;24.70;1.00;;;;;;6131520;23;20395;-81
2021/08/29 12:06:17;;;;;;;2.93;1.60;;;24.30;1.00;;;;;;6131354;23;20395;-81
2021/08/29 12:09:02;;;;;;;2.60;1.50;;;24.00;1.00;;;;;;6134475;23;20495;-83
2021/08/29 12:11:32;;;;;;;2.00;1.60;;;23.60;1.00;;;;;;6127547;23;20498;-84
2021/08/29 12:14:00;;;;;;;2.20;1.40;;;23.20;1.00;;;;;;6130535;23;20409;-82
2021/08/29 12:16:30;;;;;;;1.87;1.27;;;22.90;1.00;;;;;;6122669;23;20495;-80
2021/08/29 12:18:57;;;;;;;1.50;0.83;;;22.70;1.00;;;;;;6121058;23;20413;-82
2021/08/29 12:21:24;;;;;;;1.77;1.23;;;22.50;1.00;;;;;;6125037;23;20408;-80
2021/08/29 12:23:55;;;;;;;1.70;1.20;;;22.40;1.00;;;;;;6123691;23;20487;-83
2021/08/29 12:26:29;;;;;;;1.50;1.20;;;22.40;1.00;;;;;;6124542;23;20468;-81
2021/08/29 12:29:02;;;;;;;2.33;1.27;;;22.50;1.00;;;;;;6125591;23;21265;-81
2021/08/29 12:31:36;;;;;;;2.37;1.37;;;22.60;1.00;;;;;;6132244;23;20400;-78
2021/08/29 12:34:05;;;;;;;4.43;1.33;;;22.70;1.00;;;;;;6136807;23;20407;-80
2021/08/29 12:36:32;;;;;;;1.67;0.90;;;23.00;1.00;;;;;;6132144;23;20369;-80
2021/08/29 12:39:00;;;;;;;3.80;1.20;;;23.20;1.00;;;;;;6126556;23;20401;-81
2021/08/29 12:41:27;;;;;;;1.70;0.90;;;23.30;1.00;;;;;;6123534;23;20493;-80
2021/08/29 12:44:05;;;;;;;1.73;1.40;;;23.40;1.00;;;;;;6124687;23;21265;-80
2021/08/29 12:46:33;;;;;;;2.43;1.23;;;23.40;1.00;;;;;;6127720;23;20393;-81
2021/08/29 12:49:00;;;;;;;1.23;0.80;;;23.40;1.00;;;;;;6140666;23;20421;-79
2021/08/29 12:51:28;;;;;;;1.30;0.80;;;23.30;1.00;;;;;;6145533;23;20402;-80
2021/08/29 12:53:59;;;;;;;2.40;1.60;;;23.20;1.00;;;;;;6148325;23;20404;-79
2021/08/29 12:56:26;;;;;;;2.10;1.40;;;23.00;1.00;;;;;;6144802;23;20416;-79
2021/08/29 12:58:52;;;;;;;1.80;1.13;;;22.80;1.00;;;;;;6146322;23;20441;-81
2021/08/29 13:01:20;;;;;;;1.70;1.20;;;22.40;1.00;;;;;;6141847;23;20670;-81
2021/08/29 13:03:49;;;;;;;4.00;3.00;;;21.90;1.00;;;;;;6128455;23;20949;-80
2021/08/29 13:06:20;;;;;;;2.90;2.07;;;21.40;1.00;;;;;;6124101;23;20390;-81
2021/08/29 13:08:49;;;;;;;4.20;2.10;;;20.90;1.00;;;;;;6128855;23;20514;-80
2021/08/29 13:11:18;;;;;;;2.97;1.87;;;20.60;1.00;;;;;;6123731;23;20455;-81
2021/08/29 13:13:47;;;;;;;4.00;2.03;;;20.20;1.00;;;;;;6122031;23;20400;-79
2021/08/29 13:16:17;;;;;;;2.80;1.40;;;19.90;1.00;;;;;;6123845;23;20400;-79
2021/08/29 13:18:45;;;;;;;1.60;1.10;;;19.60;1.00;;;;;;6120685;23;20853;-82
2021/08/29 13:21:27;;;;;;;2.60;1.50;;;19.40;1.00;;;;;;6121970;23;21043;-80
2021/08/29 13:23:54;;;;;;;3.10;1.50;;;19.20;1.00;;;;;;6120055;23;20918;-82
2021/08/29 13:26:23;;;;;;;2.10;1.30;;;19.10;1.00;;;;;;6122349;23;20862;-80
2021/08/29 13:28:54;;;;;;;4.20;2.97;;;19.00;1.00;;;;;;6123190;23;20976;-81